Welcome to Northern Hawkes Bay. New Zealand.
PWS Header
      nz Flag



Hit Counter


W3C Valid W3C Valid logo


    Wairoa

Select any of the Stations below to visit their websites.










Historic Data from Weather Underground
Select the location of interest below. Wairoa is the default. Please have patience, this Data is slow to load in.
Northern Hawkes Bay Historical Data
Daily Summary for January 17, 2017 Units:  Metric    English   Both
« Previous Day
Next Day »
Daily Weekly Monthly Yearly Custom
  High: Low: Average:
Temperature: 28.3 °C 11.6 °C 21.1 °C
Dew Point: 13.7 °C 6.2 °C 10.5 °C
Humidity: 95% 27% 55%
Wind Speed: 14.8km/h 0.0km/h 4.9km/h
Wind Gust: 25.6km/h - -
Wind- - SSW
Pressure: 1013.4 hPa 1010.0 hPa -
Precipitation: 0.0 mm    
Historical Graphs
 
 
Tabular Data for January 17, 2017
Time Temperature Dew Point Pressure Wind Wind Speed Wind Gust Humidity Rainfall Rate (Hourly) solar
00:02 16.4 °C 13.7 °C 1012.1 hPa NW 3.5 km/h 8.7 km/h 84% 0.0 mm 0 W/m2
00:07 16.1 °C 13.6 °C 1012.1 hPa NW 3.5 km/h 7.2 km/h 85% 0.0 mm 0 W/m2
00:12 15.9 °C 13.7 °C 1012.1 hPa NW 3.5 km/h 5.0 km/h 87% 0.0 mm 0 W/m2
00:17 15.8 °C 13.7 °C 1012.1 hPa NNW 3.5 km/h 6.1 km/h 87% 0.0 mm 0 W/m2
00:22 15.7 °C 13.6 °C 1012.1 hPa NNE 2.6 km/h 6.1 km/h 87% 0.0 mm 0 W/m2
00:27 15.6 °C 13.4 °C 1012.1 hPa NE 1.1 km/h 5.0 km/h 87% 0.0 mm 0 W/m2
00:32 15.6 °C 13.6 °C 1012.1 hPa NNW 5.0 km/h 7.2 km/h 88% 0.0 mm 0 W/m2
00:37 15.6 °C 13.6 °C 1012.1 hPa NNW 5.0 km/h 11.1 km/h 88% 0.0 mm 0 W/m2
00:42 15.5 °C 13.6 °C 1012.1 hPa NNW 3.5 km/h 11.1 km/h 88% 0.0 mm 0 W/m2
00:47 15.3 °C 13.3 °C 1012.1 hPa NNW 5.0 km/h 7.2 km/h 88% 0.0 mm 0 W/m2
00:52 15.2 °C 13.2 °C 1012.1 hPa NNW 2.6 km/h 7.2 km/h 88% 0.0 mm 0 W/m2
00:57 15.0 °C 13.1 °C 1012.1 hPa NNW 5.0 km/h 7.2 km/h 88% 0.0 mm 0 W/m2
01:02 14.8 °C 13.2 °C 1012.1 hPa NW 3.5 km/h 6.1 km/h 90% 0.0 mm 0 W/m2
01:07 14.7 °C 13.1 °C 1012.1 hPa NW 2.6 km/h 6.1 km/h 90% 0.0 mm 0 W/m2
01:12 14.5 °C 13.1 °C 1012.1 hPa NNW 3.5 km/h 6.1 km/h 91% 0.0 mm 0 W/m2
01:17 14.4 °C 12.9 °C 1012.1 hPa North 2.6 km/h 6.1 km/h 91% 0.0 mm 0 W/m2
01:22 14.3 °C 12.8 °C 1012.1 hPa North 2.6 km/h 6.1 km/h 91% 0.0 mm 0 W/m2
01:27 14.2 °C 12.9 °C 1012.1 hPa NNW 3.5 km/h 6.1 km/h 92% 0.0 mm 0 W/m2
01:32 14.1 °C 12.8 °C 1012.1 hPa NNW 2.6 km/h 6.1 km/h 92% 0.0 mm 0 W/m2
01:37 14.0 °C 12.7 °C 1011.7 hPa NW 3.5 km/h 6.1 km/h 92% 0.0 mm 0 W/m2
01:42 14.0 °C 12.7 °C 1011.7 hPa NNW 2.6 km/h 6.1 km/h 92% 0.0 mm 0 W/m2
01:47 13.9 °C 12.8 °C 1012.1 hPa NNW 3.5 km/h 6.1 km/h 93% 0.0 mm 0 W/m2
01:52 13.9 °C 12.8 °C 1011.7 hPa NW 2.6 km/h 6.1 km/h 93% 0.0 mm 0 W/m2
01:57 13.8 °C 12.6 °C 1011.7 hPa NNW 3.5 km/h 6.1 km/h 92% 0.0 mm 0 W/m2
02:02 13.8 °C 12.6 °C 1012.1 hPa NNW 5.0 km/h 6.1 km/h 92% 0.0 mm 0 W/m2
02:23 13.7 °C 12.3 °C 1011.7 hPa NW 1.1 km/h 7.2 km/h 91% 0.0 mm 0 W/m2
02:28 13.6 °C 12.2 °C 1011.7 hPa NW 1.1 km/h 7.2 km/h 91% 0.0 mm 0 W/m2
02:33 13.5 °C 12.1 °C 1011.7 hPa NW 1.1 km/h 5.0 km/h 91% 0.0 mm 0 W/m2
02:38 13.4 °C 11.9 °C 1011.7 hPa NW 2.6 km/h 5.0 km/h 91% 0.0 mm 0 W/m2
02:43 13.2 °C 11.8 °C 1011.4 hPa NNW 2.6 km/h 5.0 km/h 91% 0.0 mm 0 W/m2
02:48 13.1 °C 11.7 °C 1011.4 hPa NNW 1.1 km/h 5.0 km/h 91% 0.0 mm 0 W/m2
02:54 13.0 °C 11.6 °C 1011.1 hPa NW 3.5 km/h 7.2 km/h 91% 0.0 mm 0 W/m2
02:59 13.0 °C 11.6 °C 1011.1 hPa NW 5.0 km/h 7.2 km/h 91% 0.0 mm 0 W/m2
03:03 13.1 °C 11.7 °C 1011.1 hPa NW 6.1 km/h 8.7 km/h 91% 0.0 mm 0 W/m2
03:09 13.1 °C 11.7 °C 1011.4 hPa NW 3.5 km/h 8.7 km/h 91% 0.0 mm 0 W/m2
03:14 13.1 °C 11.5 °C 1011.4 hPa NW 5.0 km/h 8.7 km/h 90% 0.0 mm 0 W/m2
03:19 13.0 °C 11.4 °C 1011.1 hPa NW 5.0 km/h 8.7 km/h 90% 0.0 mm 0 W/m2
03:24 12.9 °C 11.4 °C 1011.1 hPa NNW 6.1 km/h 9.7 km/h 91% 0.0 mm 0 W/m2
03:29 13.0 °C 11.4 °C 1011.1 hPa NW 5.0 km/h 9.7 km/h 90% 0.0 mm 0 W/m2
03:34 13.0 °C 11.6 °C 1011.1 hPa NNW 3.5 km/h 9.7 km/h 91% 0.0 mm 0 W/m2
03:39 13.1 °C 11.7 °C 1011.1 hPa NNW 2.6 km/h 8.7 km/h 91% 0.0 mm 0 W/m2
03:44 13.1 °C 11.7 °C 1011.1 hPa NW 2.6 km/h 8.7 km/h 91% 0.0 mm 0 W/m2
03:49 13.1 °C 11.8 °C 1011.1 hPa NW 3.5 km/h 6.1 km/h 92% 0.0 mm 0 W/m2
03:54 13.1 °C 11.8 °C 1011.1 hPa Calm   6.1 km/h 92% 0.0 mm 0 W/m2
03:59 13.0 °C 11.7 °C 1011.4 hPa NNE 2.6 km/h 6.1 km/h 92% 0.0 mm 0 W/m2
04:04 12.9 °C 11.6 °C 1011.4 hPa South 2.6 km/h 5.0 km/h 92% 0.0 mm 0 W/m2
04:09 12.9 °C 11.6 °C 1011.4 hPa Calm   5.0 km/h 92% 0.0 mm 0 W/m2
04:14 12.9 °C 11.6 °C 1011.4 hPa NW 3.5 km/h 5.0 km/h 92% 0.0 mm 0 W/m2
04:18 12.8 °C 11.6 °C 1011.4 hPa NNW 3.5 km/h 6.1 km/h 92% 0.0 mm 0 W/m2
04:24 12.8 °C 11.6 °C 1011.4 hPa NNW 3.5 km/h 7.2 km/h 92% 0.0 mm 0 W/m2
04:28 12.7 °C 11.4 °C 1011.4 hPa NW 2.6 km/h 7.2 km/h 92% 0.0 mm 0 W/m2
04:34 12.7 °C 11.4 °C 1011.4 hPa NW 2.6 km/h 7.2 km/h 92% 0.0 mm 0 W/m2
04:39 12.7 °C 11.4 °C 1011.7 hPa NW 5.0 km/h 7.2 km/h 92% 0.0 mm 0 W/m2
04:44 12.6 °C 11.3 °C 1011.4 hPa NNW 5.0 km/h 8.7 km/h 92% 0.0 mm 0 W/m2
04:49 12.5 °C 11.2 °C 1011.7 hPa NNW 5.0 km/h 8.7 km/h 92% 0.0 mm 0 W/m2
04:54 12.4 °C 11.2 °C 1011.7 hPa NNW 5.0 km/h 8.7 km/h 92% 0.0 mm 0 W/m2
05:57 11.6 °C 10.8 °C 1012.4 hPa NW 5.0 km/h 7.2 km/h 95% 0.0 mm 0 W/m2
05:58 11.6 °C 10.8 °C 1012.4 hPa NW 3.5 km/h 7.2 km/h 95% 0.0 mm 1 W/m2
07:07 13.7 °C 11.4 °C 1012.8 hPa NNW 7.2 km/h 11.1 km/h 86% 0.0 mm 88 W/m2
07:15 14.2 °C 11.6 °C 1012.8 hPa NNW 6.1 km/h 12.2 km/h 84% 0.0 mm 99 W/m2
07:20 14.6 °C 11.4 °C 1012.8 hPa NNW 5.0 km/h 13.4 km/h 81% 0.0 mm 117 W/m2
10:30 22.3 °C 9.4 °C 1013.1 hPa South 5.0 km/h 15.8 km/h 44% 0.0 mm 774 W/m2
10:31 22.5 °C 10.0 °C 1013.1 hPa South 6.1 km/h 15.8 km/h 45% 0.0 mm 783 W/m2
10:32 22.6 °C 10.1 °C 1013.1 hPa South 6.1 km/h 15.8 km/h 45% 0.0 mm 790 W/m2
10:36 22.6 °C 9.7 °C 1013.1 hPa South 5.0 km/h 14.8 km/h 44% 0.0 mm 802 W/m2
10:37 22.5 °C 10.0 °C 1013.1 hPa South 9.7 km/h 14.8 km/h 45% 0.0 mm 805 W/m2
10:39 22.4 °C 9.2 °C 1013.1 hPa South 5.0 km/h 14.8 km/h 43% 0.0 mm 805 W/m2
10:40 22.5 °C 9.7 °C 1013.1 hPa South 7.2 km/h 14.8 km/h 44% 0.0 mm 812 W/m2
10:45 22.3 °C 10.4 °C 1013.1 hPa South 11.1 km/h 14.8 km/h 47% 0.0 mm 823 W/m2
10:55 22.1 °C 8.9 °C 1013.1 hPa South 5.0 km/h 14.8 km/h 43% 0.0 mm 848 W/m2
11:00 22.4 °C 9.9 °C 1013.1 hPa South 8.7 km/h 14.8 km/h 45% 0.0 mm 862 W/m2
11:05 22.6 °C 10.4 °C 1013.1 hPa South 9.7 km/h 14.8 km/h 46% 0.0 mm 872 W/m2
11:10 22.1 °C 10.6 °C 1013.4 hPa South 3.5 km/h 15.8 km/h 48% 0.0 mm 878 W/m2
11:15 21.9 °C 11.6 °C 1013.4 hPa South 8.7 km/h 17.2 km/h 52% 0.0 mm 883 W/m2
11:20 22.3 °C 12.0 °C 1013.4 hPa SSW 8.7 km/h 17.2 km/h 52% 0.0 mm 895 W/m2
11:25 22.6 °C 11.9 °C 1013.4 hPa SSE 7.2 km/h 15.8 km/h 51% 0.0 mm 907 W/m2
11:30 22.3 °C 12.0 °C 1013.1 hPa SSE 6.1 km/h 15.8 km/h 52% 0.0 mm 911 W/m2
11:35 22.6 °C 12.6 °C 1013.4 hPa South 7.2 km/h 14.8 km/h 53% 0.0 mm 919 W/m2
11:40 22.9 °C 12.2 °C 1013.1 hPa South 3.5 km/h 14.8 km/h 51% 0.0 mm 932 W/m2
11:45 23.2 °C 11.6 °C 1013.1 hPa South 6.1 km/h 12.2 km/h 48% 0.0 mm 941 W/m2
11:50 23.2 °C 12.2 °C 1013.1 hPa South 5.0 km/h 12.2 km/h 50% 0.0 mm 943 W/m2
11:55 23.2 °C 12.2 °C 1013.4 hPa South 9.7 km/h 14.8 km/h 50% 0.0 mm 948 W/m2
12:00 23.1 °C 12.7 °C 1013.1 hPa SSE 3.5 km/h 14.8 km/h 52% 0.0 mm 950 W/m2
12:05 23.5 °C 12.5 °C 1013.4 hPa SSE 7.2 km/h 14.8 km/h 50% 0.0 mm 961 W/m2
12:11 23.4 °C 12.1 °C 1013.1 hPa SSE 6.1 km/h 13.4 km/h 49% 0.0 mm 966 W/m2
12:15 23.2 °C 10.9 °C 1013.1 hPa South 9.7 km/h 17.2 km/h 46% 0.0 mm 966 W/m2
12:20 23.0 °C 11.1 °C 1013.1 hPa SSW 9.7 km/h 17.2 km/h 47% 0.0 mm 966 W/m2
12:26 23.0 °C 11.1 °C 1013.1 hPa South 9.7 km/h 17.2 km/h 47% 0.0 mm 963 W/m2
12:31 23.2 °C 10.9 °C 1013.1 hPa South 9.7 km/h 17.2 km/h 46% 0.0 mm 920 W/m2
12:36 23.5 °C 11.9 °C 1013.1 hPa South 9.7 km/h 17.2 km/h 48% 0.0 mm 938 W/m2
12:41 23.0 °C 11.7 °C 1013.1 hPa SSE 5.0 km/h 18.3 km/h 49% 0.0 mm 968 W/m2
12:46 23.6 °C 11.9 °C 1012.8 hPa South 8.7 km/h 18.3 km/h 48% 0.0 mm 966 W/m2
12:51 23.9 °C 11.6 °C 1012.8 hPa South 6.1 km/h 14.8 km/h 46% 0.0 mm 965 W/m2
13:10 24.3 °C 9.1 °C 1012.8 hPa ESE 1.1 km/h 13.4 km/h 38% 0.0 mm 970 W/m2
13:28 24.9 °C 9.6 °C 1012.4 hPa SE 3.5 km/h 12.2 km/h 38% 0.0 mm 962 W/m2
13:34 25.4 °C 8.4 °C 1012.4 hPa SSE 8.7 km/h 13.4 km/h 34% 0.0 mm 971 W/m2
13:40 25.3 °C 8.3 °C 1012.1 hPa SSE 3.5 km/h 13.4 km/h 34% 0.0 mm 977 W/m2
13:45 25.5 °C 8.5 °C 1012.4 hPa SE 6.1 km/h 13.4 km/h 34% 0.0 mm 667 W/m2
13:50 25.2 °C 8.2 °C 1012.4 hPa SSE 8.7 km/h 13.4 km/h 34% 0.0 mm 904 W/m2
13:55 25.3 °C 7.9 °C 1012.1 hPa SE 5.0 km/h 15.8 km/h 33% 0.0 mm 948 W/m2
14:00 25.6 °C 6.8 °C 1012.1 hPa SE 5.0 km/h 15.8 km/h 30% 0.0 mm 713 W/m2
14:05 25.9 °C 7.5 °C 1012.1 hPa SSE 5.0 km/h 11.1 km/h 31% 0.0 mm 943 W/m2
14:10 26.5 °C 6.6 °C 1012.1 hPa SE 6.1 km/h 11.1 km/h 28% 0.0 mm 951 W/m2
14:15 26.6 °C 7.1 °C 1012.1 hPa ESE 6.1 km/h 13.4 km/h 29% 0.0 mm 958 W/m2
14:20 26.2 °C 8.2 °C 1011.7 hPa SE 7.2 km/h 14.8 km/h 32% 0.0 mm 945 W/m2
14:25 25.9 °C 8.4 °C 1011.7 hPa SSE 5.0 km/h 14.8 km/h 33% 0.0 mm 945 W/m2
14:30 26.4 °C 8.4 °C 1011.7 hPa SSE 5.0 km/h 13.4 km/h 32% 0.0 mm 955 W/m2
14:35 26.5 °C 8.0 °C 1011.7 hPa SSE 11.1 km/h 17.2 km/h 31% 0.0 mm 948 W/m2
14:40 26.1 °C 9.1 °C 1011.7 hPa SSE 7.2 km/h 17.2 km/h 34% 0.0 mm 956 W/m2
14:57 26.0 °C 9.4 °C 1011.7 hPa SSE 3.5 km/h 19.5 km/h 35% 0.0 mm 646 W/m2
15:02 25.4 °C 8.0 °C 1011.4 hPa SSE 2.6 km/h 18.3 km/h 33% 0.0 mm 462 W/m2
15:07 25.2 °C 8.2 °C 1011.4 hPa SSE 11.1 km/h 15.8 km/h 34% 0.0 mm 767 W/m2
15:12 25.3 °C 9.6 °C 1011.4 hPa SSE 5.0 km/h 18.3 km/h 37% 0.0 mm 753 W/m2
15:17 25.9 °C 10.1 °C 1011.7 hPa SE 3.5 km/h 18.3 km/h 37% 0.0 mm 577 W/m2
15:22 26.0 °C 7.6 °C 1011.4 hPa SE 3.5 km/h 13.4 km/h 31% 0.0 mm 421 W/m2
15:27 26.0 °C 8.9 °C 1011.4 hPa ESE 7.2 km/h 12.2 km/h 34% 0.0 mm 388 W/m2
15:28 25.9 °C 8.8 °C 1011.4 hPa SE 6.1 km/h 12.2 km/h 34% 0.0 mm 479 W/m2
15:33 26.1 °C 9.1 °C 1011.4 hPa SE 9.7 km/h 17.2 km/h 34% 0.0 mm 835 W/m2
15:38 25.8 °C 8.3 °C 1011.4 hPa SE 9.7 km/h 17.2 km/h 33% 0.0 mm 792 W/m2
15:43 26.0 °C 8.5 °C 1011.4 hPa SSE 7.2 km/h 17.2 km/h 33% 0.0 mm 725 W/m2
15:48 26.0 °C 8.5 °C 1011.1 hPa SSE 11.1 km/h 14.8 km/h 33% 0.0 mm 755 W/m2
15:53 25.5 °C 10.2 °C 1011.4 hPa SSE 7.2 km/h 20.9 km/h 38% 0.0 mm 737 W/m2
15:58 25.3 °C 9.2 °C 1011.4 hPa SSE 11.1 km/h 20.9 km/h 36% 0.0 mm 672 W/m2
16:03 25.4 °C 10.4 °C 1011.4 hPa SSE 7.2 km/h 20.9 km/h 39% 0.0 mm 727 W/m2
16:08 25.1 °C 8.6 °C 1011.1 hPa SSE 14.8 km/h 25.6 km/h 35% 0.0 mm 389 W/m2
16:13 24.3 °C 11.3 °C 1011.1 hPa SSE 11.1 km/h 25.6 km/h 44% 0.0 mm 688 W/m2
16:18 25.2 °C 11.8 °C 1011.1 hPa SE 12.2 km/h 24.5 km/h 43% 0.0 mm 668 W/m2
16:23 25.0 °C 11.6 °C 1011.1 hPa SE 8.7 km/h 21.9 km/h 43% 0.0 mm 646 W/m2
16:28 25.2 °C 12.1 °C 1011.1 hPa SE 11.1 km/h 21.9 km/h 44% 0.0 mm 630 W/m2
16:33 25.2 °C 12.8 °C 1011.1 hPa SE 7.2 km/h 18.3 km/h 46% 0.0 mm 620 W/m2
16:39 25.7 °C 12.2 °C 1010.7 hPa SE 5.0 km/h 17.2 km/h 43% 0.0 mm 603 W/m2
16:45 26.0 °C 11.0 °C 1010.7 hPa ESE 7.2 km/h 19.5 km/h 39% 0.0 mm 587 W/m2
16:50 26.0 °C 10.6 °C 1010.7 hPa ESE 8.7 km/h 19.5 km/h 38% 0.0 mm 572 W/m2
16:55 27.0 °C 11.1 °C 1010.7 hPa East 7.2 km/h 18.3 km/h 37% 0.0 mm 561 W/m2
17:00 26.9 °C 11.4 °C 1010.7 hPa ESE 11.1 km/h 19.5 km/h 38% 0.0 mm 554 W/m2
17:05 27.0 °C 11.9 °C 1010.7 hPa SE 8.7 km/h 19.5 km/h 39% 0.0 mm 538 W/m2
17:10 26.9 °C 12.9 °C 1010.7 hPa SE 9.7 km/h 18.3 km/h 42% 0.0 mm 522 W/m2
17:15 27.4 °C 11.1 °C 1010.7 hPa SE 6.1 km/h 18.3 km/h 36% 0.0 mm 509 W/m2
17:25 27.4 °C 10.2 °C 1010.7 hPa SE 7.2 km/h 17.2 km/h 34% 0.0 mm 484 W/m2
17:30 27.2 °C 10.0 °C 1010.7 hPa SE 8.7 km/h 17.2 km/h 34% 0.0 mm 470 W/m2
17:40 27.2 °C 10.8 °C 1010.7 hPa ESE 7.2 km/h 17.2 km/h 36% 0.0 mm 388 W/m2
17:45 27.0 °C 11.5 °C 1010.4 hPa ESE 12.2 km/h 14.8 km/h 38% 0.0 mm 420 W/m2
17:50 27.1 °C 11.6 °C 1010.7 hPa ESE 3.5 km/h 14.8 km/h 38% 0.0 mm 401 W/m2
17:55 27.8 °C 12.6 °C 1010.7 hPa SE 5.0 km/h 14.8 km/h 39% 0.0 mm 388 W/m2
18:00 27.7 °C 13.3 °C 1010.4 hPa SSE 5.0 km/h 13.4 km/h 41% 0.0 mm 366 W/m2
18:06 27.5 °C 13.1 °C 1010.4 hPa SSE 8.7 km/h 13.4 km/h 41% 0.0 mm 358 W/m2
18:11 27.8 °C 11.4 °C 1010.4 hPa SE 5.0 km/h 13.4 km/h 36% 0.0 mm 337 W/m2
18:16 28.2 °C 12.6 °C 1010.4 hPa SE 8.7 km/h 12.2 km/h 38% 0.0 mm 326 W/m2
18:21 27.9 °C 11.9 °C 1010.4 hPa SE 8.7 km/h 13.4 km/h 37% 0.0 mm 311 W/m2
18:26 27.8 °C 11.4 °C 1010.4 hPa SE 5.0 km/h 13.4 km/h 36% 0.0 mm 290 W/m2
18:31 27.7 °C 10.9 °C 1010.4 hPa SE 5.0 km/h 14.8 km/h 35% 0.0 mm 265 W/m2
18:36 27.6 °C 10.8 °C 1010.4 hPa SE 6.1 km/h 15.8 km/h 35% 0.0 mm 269 W/m2
18:41 27.6 °C 9.9 °C 1010.4 hPa ESE 7.2 km/h 15.8 km/h 33% 0.0 mm 254 W/m2
18:46 27.4 °C 9.7 °C 1010.4 hPa ESE 3.5 km/h 11.1 km/h 33% 0.0 mm 241 W/m2
18:51 27.1 °C 9.0 °C 1010.4 hPa East 6.1 km/h 11.1 km/h 32% 0.0 mm 227 W/m2
18:56 26.9 °C 9.7 °C 1010.4 hPa East 6.1 km/h 12.2 km/h 34% 0.0 mm 216 W/m2
19:01 26.4 °C 10.2 °C 1010.4 hPa East 5.0 km/h 12.2 km/h 36% 0.0 mm 148 W/m2
19:06 26.3 °C 10.4 °C 1010.7 hPa East 2.6 km/h 9.7 km/h 37% 0.0 mm 182 W/m2
19:11 26.2 °C 9.9 °C 1010.4 hPa ESE 3.5 km/h 9.7 km/h 36% 0.0 mm 60 W/m2
19:16 25.8 °C 10.0 °C 1010.4 hPa ESE 2.6 km/h 9.7 km/h 37% 0.0 mm 69 W/m2
19:21 26.7 °C 10.0 °C 1010.4 hPa ESE 3.5 km/h 9.7 km/h 35% 0.0 mm 159 W/m2
19:26 27.5 °C 9.3 °C 1010.4 hPa ESE 3.5 km/h 8.7 km/h 32% 0.0 mm 148 W/m2
19:31 27.6 °C 7.4 °C 1010.4 hPa SE 1.1 km/h 8.7 km/h 28% 0.0 mm 93 W/m2
19:36 28.0 °C 10.7 °C 1010.7 hPa SSE 2.6 km/h 6.1 km/h 34% 0.0 mm 109 W/m2
19:41 27.5 °C 6.8 °C 1010.7 hPa Calm   8.7 km/h 27% 0.0 mm 113 W/m2
19:46 28.3 °C 11.4 °C 1010.7 hPa East 1.1 km/h 8.7 km/h 35% 0.0 mm 104 W/m2
19:51 28.3 °C 10.1 °C 1010.7 hPa SE 1.1 km/h 6.1 km/h 32% 0.0 mm 89 W/m2
19:56 27.4 °C 8.3 °C 1010.4 hPa East 1.1 km/h 6.1 km/h 30% 0.0 mm 52 W/m2
20:01 26.4 °C 8.8 °C 1010.7 hPa East 3.5 km/h 6.1 km/h 33% 0.0 mm 23 W/m2
20:06 25.4 °C 8.8 °C 1010.7 hPa ENE 5.0 km/h 9.7 km/h 35% 0.0 mm 17 W/m2
20:10 25.1 °C 9.0 °C 1010.7 hPa ENE 3.5 km/h 9.7 km/h 36% 0.0 mm 18 W/m2
20:15 24.7 °C 9.8 °C 1010.7 hPa ENE 3.5 km/h 9.7 km/h 39% 0.0 mm 13 W/m2
20:20 24.2 °C 10.1 °C 1010.7 hPa ENE 3.5 km/h 7.2 km/h 41% 0.0 mm 10 W/m2
20:25 23.8 °C 10.1 °C 1010.7 hPa ENE 3.5 km/h 7.2 km/h 42% 0.0 mm 7 W/m2
20:30 23.5 °C 9.1 °C 1010.7 hPa NE 5.0 km/h 8.7 km/h 40% 0.0 mm 5 W/m2
20:35 23.4 °C 8.7 °C 1010.7 hPa NE 3.5 km/h 9.7 km/h 39% 0.0 mm 4 W/m2
20:40 23.1 °C 8.4 °C 1010.7 hPa NE 3.5 km/h 11.1 km/h 39% 0.0 mm 2 W/m2
20:45 23.0 °C 7.9 °C 1010.7 hPa NE 2.6 km/h 11.1 km/h 38% 0.0 mm 0 W/m2
20:50 22.8 °C 7.8 °C 1010.7 hPa ENE 5.0 km/h 11.1 km/h 38% 0.0 mm 0 W/m2
20:55 22.6 °C 6.8 °C 1010.7 hPa NE 2.6 km/h 11.1 km/h 36% 0.0 mm 0 W/m2
21:00 22.4 °C 6.2 °C 1010.7 hPa NE 2.6 km/h 11.1 km/h 35% 0.0 mm 0 W/m2
21:05 22.2 °C 6.4 °C 1010.7 hPa NE 2.6 km/h 8.7 km/h 36% 0.0 mm 0 W/m2
21:10 22.1 °C 6.3 °C 1010.7 hPa ENE 3.5 km/h 8.7 km/h 36% 0.0 mm 0 W/m2
21:15 22.0 °C 6.7 °C 1010.7 hPa NE 2.6 km/h 7.2 km/h 37% 0.0 mm 0 W/m2
21:20 21.9 °C 7.7 °C 1011.1 hPa Calm   7.2 km/h 40% 0.0 mm 0 W/m2
21:25 21.6 °C 7.8 °C 1010.7 hPa Calm   5.0 km/h 41% 0.0 mm 0 W/m2
21:30 21.3 °C 7.9 °C 1010.7 hPa NE 2.6 km/h 5.0 km/h 42% 0.0 mm 0 W/m2
21:35 21.2 °C 7.8 °C 1011.1 hPa NNE 5.0 km/h 8.7 km/h 42% 0.0 mm 0 W/m2
21:40 21.3 °C 7.5 °C 1010.7 hPa NNE 1.1 km/h 8.7 km/h 41% 0.0 mm 0 W/m2
21:45 21.2 °C 7.8 °C 1010.7 hPa NNE 2.6 km/h 7.2 km/h 42% 0.0 mm 0 W/m2
21:50 21.2 °C 7.8 °C 1010.7 hPa NNE 1.1 km/h 7.2 km/h 42% 0.0 mm 0 W/m2
21:55 21.0 °C 7.6 °C 1010.7 hPa NNE 2.6 km/h 7.2 km/h 42% 0.0 mm 0 W/m2
22:00 21.0 °C 7.9 °C 1010.7 hPa NNE 2.6 km/h 6.1 km/h 43% 0.0 mm 0 W/m2
22:05 20.8 °C 8.1 °C 1010.7 hPa North 1.1 km/h 6.1 km/h 44% 0.0 mm 0 W/m2
22:10 20.5 °C 7.8 °C 1010.7 hPa Calm   3.5 km/h 44% 0.0 mm 0 W/m2
22:15 20.3 °C 8.0 °C 1010.7 hPa Calm   2.6 km/h 45% 0.0 mm 0 W/m2
22:20 20.1 °C 8.1 °C 1010.7 hPa Calm   1.1 km/h 46% 0.0 mm 0 W/m2
22:25 19.9 °C 8.9 °C 1010.7 hPa Calm   1.1 km/h 49% 0.0 mm 0 W/m2
22:30 19.6 °C 8.9 °C 1010.7 hPa Calm     50% 0.0 mm 0 W/m2
22:35 19.4 °C 9.0 °C 1010.4 hPa NNW 1.1 km/h 3.5 km/h 51% 0.0 mm 0 W/m2
22:41 19.2 °C 9.1 °C 1010.7 hPa NW 2.6 km/h 3.5 km/h 52% 0.0 mm 0 W/m2
22:46 19.0 °C 9.2 °C 1010.4 hPa NNW 1.1 km/h 3.5 km/h 53% 0.0 mm 0 W/m2
22:51 18.9 °C 9.7 °C 1010.7 hPa Calm   3.5 km/h 55% 0.0 mm 0 W/m2
22:56 18.9 °C 9.7 °C 1010.7 hPa Calm   3.5 km/h 55% 0.0 mm 0 W/m2
23:01 18.7 °C 9.5 °C 1010.4 hPa NNW 2.6 km/h 3.5 km/h 55% 0.0 mm 0 W/m2
23:06 18.5 °C 9.8 °C 1010.4 hPa NNW 3.5 km/h 5.0 km/h 57% 0.0 mm 0 W/m2
23:11 18.5 °C 10.1 °C 1010.4 hPa NNW 3.5 km/h 6.1 km/h 58% 0.0 mm 0 W/m2
23:16 18.6 °C 10.4 °C 1010.4 hPa NNW 5.0 km/h 7.2 km/h 59% 0.0 mm 0 W/m2
23:21 18.6 °C 10.4 °C 1010.4 hPa NW 5.0 km/h 7.2 km/h 59% 0.0 mm 0 W/m2
23:26 18.3 °C 10.7 °C 1010.4 hPa NW 6.1 km/h 8.7 km/h 61% 0.0 mm 0 W/m2
23:31 18.2 °C 11.1 °C 1010.4 hPa NNW 7.2 km/h 11.1 km/h 63% 0.0 mm 0 W/m2
23:36 18.3 °C 11.4 °C 1010.0 hPa NNW 5.0 km/h 11.1 km/h 64% 0.0 mm 0 W/m2
23:41 18.3 °C 11.6 °C 1010.0 hPa NNW 6.1 km/h 11.1 km/h 65% 0.0 mm 0 W/m2
23:46 18.1 °C 11.7 °C 1010.0 hPa NNW 6.1 km/h 11.1 km/h 66% 0.0 mm 0 W/m2
23:51 18.1 °C 11.7 °C 1010.0 hPa NNW 7.2 km/h 12.2 km/h 66% 0.0 mm 0 W/m2
23:56 18.1 °C 11.7 °C 1010.0 hPa NNW 7.2 km/h 12.2 km/h 66% 0.0 mm 0 W/m2
Northern Hawkes Bay. New Zealand Historic Data
Compliments of Weather Underground - 2 mb